sensor_id;sensor_type;location;lat;lon;timestamp;temperature;humidity
35531;DHT22;21637;53.352;-6.356;2023-04-15T00:00:32;5.80;99.90
35531;DHT22;21637;53.352;-6.356;2023-04-15T00:02:58;5.80;99.90
35531;DHT22;21637;53.352;-6.356;2023-04-15T00:05:28;5.70;99.90
35531;DHT22;21637;53.352;-6.356;2023-04-15T00:07:54;5.70;99.90
35531;DHT22;21637;53.352;-6.356;2023-04-15T00:10:19;5.70;99.90
35531;DHT22;21637;53.352;-6.356;2023-04-15T00:12:45;5.80;99.90
35531;DHT22;21637;53.352;-6.356;2023-04-15T00:15:11;5.80;99.90
35531;DHT22;21637;53.352;-6.356;2023-04-15T00:17:37;5.80;99.90
35531;DHT22;21637;53.352;-6.356;2023-04-15T00:20:04;5.70;99.90
35531;DHT22;21637;53.352;-6.356;2023-04-15T00:22:31;5.60;99.90
35531;DHT22;21637;53.352;-6.356;2023-04-15T00:24:57;5.60;99.90
35531;DHT22;21637;53.352;-6.356;2023-04-15T00:27:23;5.50;99.90
35531;DHT22;21637;53.352;-6.356;2023-04-15T00:29:49;5.50;99.90
35531;DHT22;21637;53.352;-6.356;2023-04-15T00:32:14;5.40;99.90
35531;DHT22;21637;53.352;-6.356;2023-04-15T00:34:40;5.40;99.90
35531;DHT22;21637;53.352;-6.356;2023-04-15T00:37:08;5.30;99.90
35531;DHT22;21637;53.352;-6.356;2023-04-15T00:39:33;5.30;99.90
35531;DHT22;21637;53.352;-6.356;2023-04-15T00:42:00;5.30;99.90
35531;DHT22;21637;53.352;-6.356;2023-04-15T00:44:26;5.30;99.90
35531;DHT22;21637;53.352;-6.356;2023-04-15T00:46:52;5.30;99.90
35531;DHT22;21637;53.352;-6.356;2023-04-15T00:49:18;5.50;99.90
35531;DHT22;21637;53.352;-6.356;2023-04-15T00:51:44;5.50;99.90
35531;DHT22;21637;53.352;-6.356;2023-04-15T00:54:10;5.50;99.90
35531;DHT22;21637;53.352;-6.356;2023-04-15T00:56:38;5.60;99.90
35531;DHT22;21637;53.352;-6.356;2023-04-15T00:59:05;5.50;99.90
35531;DHT22;21637;53.352;-6.356;2023-04-15T01:01:33;5.40;99.90
35531;DHT22;21637;53.352;-6.356;2023-04-15T01:04:00;5.30;99.90
35531;DHT22;21637;53.352;-6.356;2023-04-15T01:06:26;5.20;99.90
35531;DHT22;21637;53.352;-6.356;2023-04-15T01:08:53;5.20;99.90
35531;DHT22;21637;53.352;-6.356;2023-04-15T01:11:19;5.20;99.90
35531;DHT22;21637;53.352;-6.356;2023-04-15T01:13:46;5.30;99.90
35531;DHT22;21637;53.352;-6.356;2023-04-15T01:16:13;5.30;99.90
35531;DHT22;21637;53.352;-6.356;2023-04-15T01:18:39;5.30;99.90
35531;DHT22;21637;53.352;-6.356;2023-04-15T01:21:05;5.30;99.90
35531;DHT22;21637;53.352;-6.356;2023-04-15T01:23:32;5.20;99.90
35531;DHT22;21637;53.352;-6.356;2023-04-15T01:25:58;5.30;99.90
35531;DHT22;21637;53.352;-6.356;2023-04-15T01:28:25;5.20;99.90
35531;DHT22;21637;53.352;-6.356;2023-04-15T01:31:12;5.20;99.90
35531;DHT22;21637;53.352;-6.356;2023-04-15T01:33:39;5.20;99.90
35531;DHT22;21637;53.352;-6.356;2023-04-15T01:36:06;5.20;99.90
35531;DHT22;21637;53.352;-6.356;2023-04-15T01:38:33;5.20;99.90
35531;DHT22;21637;53.352;-6.356;2023-04-15T01:40:59;5.20;99.90
35531;DHT22;21637;53.352;-6.356;2023-04-15T01:43:25;5.20;99.90
35531;DHT22;21637;53.352;-6.356;2023-04-15T01:45:51;5.20;99.90
35531;DHT22;21637;53.352;-6.356;2023-04-15T01:48:17;5.10;99.90
35531;DHT22;21637;53.352;-6.356;2023-04-15T01:50:43;5.20;99.90
35531;DHT22;21637;53.352;-6.356;2023-04-15T01:53:09;5.20;99.90
35531;DHT22;21637;53.352;-6.356;2023-04-15T01:55:35;5.10;99.90
35531;DHT22;21637;53.352;-6.356;2023-04-15T01:58:01;5.10;99.90
35531;DHT22;21637;53.352;-6.356;2023-04-15T02:00:27;5.10;99.90
35531;DHT22;21637;53.352;-6.356;2023-04-15T02:02:53;5.00;99.90
35531;DHT22;21637;53.352;-6.356;2023-04-15T02:05:19;5.00;99.90
35531;DHT22;21637;53.352;-6.356;2023-04-15T02:07:44;5.00;99.90
35531;DHT22;21637;53.352;-6.356;2023-04-15T02:10:10;4.90;99.90
35531;DHT22;21637;53.352;-6.356;2023-04-15T02:12:38;4.90;99.90
35531;DHT22;21637;53.352;-6.356;2023-04-15T02:15:04;4.90;99.90
35531;DHT22;21637;53.352;-6.356;2023-04-15T02:17:36;4.80;99.90
35531;DHT22;21637;53.352;-6.356;2023-04-15T02:20:02;4.90;99.90
35531;DHT22;21637;53.352;-6.356;2023-04-15T02:22:30;4.80;99.90
35531;DHT22;21637;53.352;-6.356;2023-04-15T02:24:56;4.80;99.90
35531;DHT22;21637;53.352;-6.356;2023-04-15T02:27:22;4.80;99.90
35531;DHT22;21637;53.352;-6.356;2023-04-15T02:29:47;4.70;99.90
35531;DHT22;21637;53.352;-6.356;2023-04-15T02:32:15;4.70;99.90
35531;DHT22;21637;53.352;-6.356;2023-04-15T02:34:41;4.70;99.90
35531;DHT22;21637;53.352;-6.356;2023-04-15T02:37:08;4.70;99.90
35531;DHT22;21637;53.352;-6.356;2023-04-15T02:39:35;4.60;99.90
35531;DHT22;21637;53.352;-6.356;2023-04-15T02:42:00;4.60;99.90
35531;DHT22;21637;53.352;-6.356;2023-04-15T02:44:27;4.50;99.90
35531;DHT22;21637;53.352;-6.356;2023-04-15T02:46:53;4.50;99.90
35531;DHT22;21637;53.352;-6.356;2023-04-15T02:49:20;4.50;99.90
35531;DHT22;21637;53.352;-6.356;2023-04-15T02:51:46;4.40;99.90
35531;DHT22;21637;53.352;-6.356;2023-04-15T02:54:19;4.40;99.90
35531;DHT22;21637;53.352;-6.356;2023-04-15T02:56:45;4.50;99.90
35531;DHT22;21637;53.352;-6.356;2023-04-15T02:59:14;4.50;99.90
35531;DHT22;21637;53.352;-6.356;2023-04-15T03:01:39;4.40;99.90
35531;DHT22;21637;53.352;-6.356;2023-04-15T03:04:05;4.50;99.90
35531;DHT22;21637;53.352;-6.356;2023-04-15T03:06:33;4.50;99.90
35531;DHT22;21637;53.352;-6.356;2023-04-15T03:08:59;4.50;99.90
35531;DHT22;21637;53.352;-6.356;2023-04-15T03:11:27;4.50;99.90
35531;DHT22;21637;53.352;-6.356;2023-04-15T03:13:53;4.50;99.90
35531;DHT22;21637;53.352;-6.356;2023-04-15T03:16:19;4.40;99.90
35531;DHT22;21637;53.352;-6.356;2023-04-15T03:18:45;4.40;99.90
35531;DHT22;21637;53.352;-6.356;2023-04-15T03:21:11;4.40;99.90
35531;DHT22;21637;53.352;-6.356;2023-04-15T03:23:36;4.40;99.90
35531;DHT22;21637;53.352;-6.356;2023-04-15T03:26:03;4.40;99.90
35531;DHT22;21637;53.352;-6.356;2023-04-15T03:28:29;4.40;99.90
35531;DHT22;21637;53.352;-6.356;2023-04-15T03:30:55;4.40;99.90
35531;DHT22;21637;53.352;-6.356;2023-04-15T03:33:21;4.40;99.90
35531;DHT22;21637;53.352;-6.356;2023-04-15T03:35:47;4.30;99.90
35531;DHT22;21637;53.352;-6.356;2023-04-15T03:38:13;4.30;99.90
35531;DHT22;21637;53.352;-6.356;2023-04-15T03:40:40;4.30;99.90
35531;DHT22;21637;53.352;-6.356;2023-04-15T03:43:06;4.30;99.90
35531;DHT22;21637;53.352;-6.356;2023-04-15T03:45:32;4.20;99.90
35531;DHT22;21637;53.352;-6.356;2023-04-15T03:47:58;4.20;99.90
35531;DHT22;21637;53.352;-6.356;2023-04-15T03:50:23;4.20;99.90
35531;DHT22;21637;53.352;-6.356;2023-04-15T03:52:49;4.20;99.90
35531;DHT22;21637;53.352;-6.356;2023-04-15T03:55:15;4.20;99.90
35531;DHT22;21637;53.352;-6.356;2023-04-15T03:57:41;4.10;99.90
35531;DHT22;21637;53.352;-6.356;2023-04-15T04:00:08;4.00;99.90
35531;DHT22;21637;53.352;-6.356;2023-04-15T04:02:35;3.90;99.90
35531;DHT22;21637;53.352;-6.356;2023-04-15T04:05:00;3.90;99.90
35531;DHT22;21637;53.352;-6.356;2023-04-15T04:07:26;3.90;99.90
35531;DHT22;21637;53.352;-6.356;2023-04-15T04:09:52;3.80;99.90
35531;DHT22;21637;53.352;-6.356;2023-04-15T04:12:18;3.80;99.90
35531;DHT22;21637;53.352;-6.356;2023-04-15T04:14:43;3.70;99.90
35531;DHT22;21637;53.352;-6.356;2023-04-15T04:17:10;3.70;99.90
35531;DHT22;21637;53.352;-6.356;2023-04-15T04:19:36;3.70;99.90
35531;DHT22;21637;53.352;-6.356;2023-04-15T04:22:01;3.70;99.90
35531;DHT22;21637;53.352;-6.356;2023-04-15T04:24:27;3.80;99.90
35531;DHT22;21637;53.352;-6.356;2023-04-15T04:26:53;3.80;99.90
35531;DHT22;21637;53.352;-6.356;2023-04-15T04:29:19;3.80;99.90
35531;DHT22;21637;53.352;-6.356;2023-04-15T04:31:44;3.90;99.90
35531;DHT22;21637;53.352;-6.356;2023-04-15T04:34:11;3.90;99.90
35531;DHT22;21637;53.352;-6.356;2023-04-15T04:36:37;3.90;99.90
35531;DHT22;21637;53.352;-6.356;2023-04-15T04:39:02;3.90;99.90
35531;DHT22;21637;53.352;-6.356;2023-04-15T04:41:28;3.90;99.90
35531;DHT22;21637;53.352;-6.356;2023-04-15T04:43:54;3.90;99.90
35531;DHT22;21637;53.352;-6.356;2023-04-15T04:46:19;3.90;99.90
35531;DHT22;21637;53.352;-6.356;2023-04-15T04:48:46;3.90;99.90
35531;DHT22;21637;53.352;-6.356;2023-04-15T04:51:12;3.90;99.90
35531;DHT22;21637;53.352;-6.356;2023-04-15T04:53:37;3.80;99.90
35531;DHT22;21637;53.352;-6.356;2023-04-15T04:56:03;3.90;99.90
35531;DHT22;21637;53.352;-6.356;2023-04-15T04:58:29;3.90;99.90
35531;DHT22;21637;53.352;-6.356;2023-04-15T05:00:55;3.90;99.90
35531;DHT22;21637;53.352;-6.356;2023-04-15T05:03:21;3.90;99.90
35531;DHT22;21637;53.352;-6.356;2023-04-15T05:05:47;3.90;99.90
35531;DHT22;21637;53.352;-6.356;2023-04-15T05:08:14;3.90;99.90
35531;DHT22;21637;53.352;-6.356;2023-04-15T05:10:40;3.90;99.90
35531;DHT22;21637;53.352;-6.356;2023-04-15T05:13:06;3.90;99.90
35531;DHT22;21637;53.352;-6.356;2023-04-15T05:15:32;3.90;99.90
35531;DHT22;21637;53.352;-6.356;2023-04-15T05:17:59;4.00;99.90
35531;DHT22;21637;53.352;-6.356;2023-04-15T05:20:25;3.90;99.90
35531;DHT22;21637;53.352;-6.356;2023-04-15T05:22:50;3.80;99.90
35531;DHT22;21637;53.352;-6.356;2023-04-15T05:25:17;3.80;99.90
35531;DHT22;21637;53.352;-6.356;2023-04-15T05:27:43;3.80;99.90
35531;DHT22;21637;53.352;-6.356;2023-04-15T05:30:08;3.70;99.90
35531;DHT22;21637;53.352;-6.356;2023-04-15T05:32:34;3.70;99.90
35531;DHT22;21637;53.352;-6.356;2023-04-15T05:35:00;3.70;99.90
35531;DHT22;21637;53.352;-6.356;2023-04-15T05:37:26;3.70;99.90
35531;DHT22;21637;53.352;-6.356;2023-04-15T05:39:51;3.70;99.90
35531;DHT22;21637;53.352;-6.356;2023-04-15T05:42:17;3.60;99.90
35531;DHT22;21637;53.352;-6.356;2023-04-15T05:44:43;3.60;99.90
35531;DHT22;21637;53.352;-6.356;2023-04-15T05:47:08;3.60;99.90
35531;DHT22;21637;53.352;-6.356;2023-04-15T05:49:35;3.50;99.90
35531;DHT22;21637;53.352;-6.356;2023-04-15T05:52:01;3.50;99.90
35531;DHT22;21637;53.352;-6.356;2023-04-15T05:54:27;3.50;99.90
35531;DHT22;21637;53.352;-6.356;2023-04-15T05:56:53;3.60;99.90
35531;DHT22;21637;53.352;-6.356;2023-04-15T05:59:19;3.70;99.90
35531;DHT22;21637;53.352;-6.356;2023-04-15T06:01:45;3.80;99.90
35531;DHT22;21637;53.352;-6.356;2023-04-15T06:04:11;3.90;99.90
35531;DHT22;21637;53.352;-6.356;2023-04-15T06:06:37;4.10;99.90
35531;DHT22;21637;53.352;-6.356;2023-04-15T06:09:03;4.20;99.90
35531;DHT22;21637;53.352;-6.356;2023-04-15T06:11:29;4.40;99.90
35531;DHT22;21637;53.352;-6.356;2023-04-15T06:13:55;4.50;99.90
35531;DHT22;21637;53.352;-6.356;2023-04-15T06:16:21;4.70;99.90
35531;DHT22;21637;53.352;-6.356;2023-04-15T06:18:47;4.80;99.90
35531;DHT22;21637;53.352;-6.356;2023-04-15T06:21:14;4.90;99.90
35531;DHT22;21637;53.352;-6.356;2023-04-15T06:23:40;5.00;99.90
35531;DHT22;21637;53.352;-6.356;2023-04-15T06:26:06;5.20;99.90
35531;DHT22;21637;53.352;-6.356;2023-04-15T06:28:32;5.30;99.90
35531;DHT22;21637;53.352;-6.356;2023-04-15T06:30:58;5.50;99.90
35531;DHT22;21637;53.352;-6.356;2023-04-15T06:33:23;5.60;99.90
35531;DHT22;21637;53.352;-6.356;2023-04-15T06:35:49;5.80;99.90
35531;DHT22;21637;53.352;-6.356;2023-04-15T06:38:15;5.90;99.90
35531;DHT22;21637;53.352;-6.356;2023-04-15T06:40:41;6.10;99.90
35531;DHT22;21637;53.352;-6.356;2023-04-15T06:43:07;6.10;99.90
35531;DHT22;21637;53.352;-6.356;2023-04-15T06:45:33;6.20;99.90
35531;DHT22;21637;53.352;-6.356;2023-04-15T06:47:59;6.40;99.90
35531;DHT22;21637;53.352;-6.356;2023-04-15T06:50:25;6.50;99.90
35531;DHT22;21637;53.352;-6.356;2023-04-15T06:52:53;6.70;99.90
35531;DHT22;21637;53.352;-6.356;2023-04-15T06:55:19;6.90;99.90
35531;DHT22;21637;53.352;-6.356;2023-04-15T06:57:45;7.00;99.90
35531;DHT22;21637;53.352;-6.356;2023-04-15T07:00:11;7.10;99.90
35531;DHT22;21637;53.352;-6.356;2023-04-15T07:02:37;7.30;99.90
35531;DHT22;21637;53.352;-6.356;2023-04-15T07:05:06;7.40;99.90
35531;DHT22;21637;53.352;-6.356;2023-04-15T07:07:32;7.50;99.90
35531;DHT22;21637;53.352;-6.356;2023-04-15T07:09:57;7.60;99.90
35531;DHT22;21637;53.352;-6.356;2023-04-15T07:12:23;7.70;99.90
35531;DHT22;21637;53.352;-6.356;2023-04-15T07:14:49;7.80;99.90
35531;DHT22;21637;53.352;-6.356;2023-04-15T07:17:15;7.90;99.90
35531;DHT22;21637;53.352;-6.356;2023-04-15T07:19:41;8.00;99.90
35531;DHT22;21637;53.352;-6.356;2023-04-15T07:22:06;8.20;99.90
35531;DHT22;21637;53.352;-6.356;2023-04-15T07:24:32;8.40;99.90
35531;DHT22;21637;53.352;-6.356;2023-04-15T07:26:58;8.50;99.90
35531;DHT22;21637;53.352;-6.356;2023-04-15T07:29:24;8.60;99.90
35531;DHT22;21637;53.352;-6.356;2023-04-15T07:31:50;8.70;99.90
35531;DHT22;21637;53.352;-6.356;2023-04-15T07:34:18;8.90;99.90
35531;DHT22;21637;53.352;-6.356;2023-04-15T07:36:45;9.00;99.90
35531;DHT22;21637;53.352;-6.356;2023-04-15T07:39:14;9.10;99.90
35531;DHT22;21637;53.352;-6.356;2023-04-15T07:41:41;9.20;99.90
35531;DHT22;21637;53.352;-6.356;2023-04-15T07:44:08;9.20;99.90
35531;DHT22;21637;53.352;-6.356;2023-04-15T07:46:34;9.20;99.90
35531;DHT22;21637;53.352;-6.356;2023-04-15T07:48:59;9.30;99.90
35531;DHT22;21637;53.352;-6.356;2023-04-15T07:51:25;9.40;99.90
35531;DHT22;21637;53.352;-6.356;2023-04-15T07:53:51;9.50;99.90
35531;DHT22;21637;53.352;-6.356;2023-04-15T07:56:17;9.60;99.90
35531;DHT22;21637;53.352;-6.356;2023-04-15T07:58:42;9.60;99.90
35531;DHT22;21637;53.352;-6.356;2023-04-15T08:01:08;9.70;99.90
35531;DHT22;21637;53.352;-6.356;2023-04-15T08:03:34;9.60;99.90
35531;DHT22;21637;53.352;-6.356;2023-04-15T08:06:00;9.70;99.90
35531;DHT22;21637;53.352;-6.356;2023-04-15T08:08:26;9.70;99.90
35531;DHT22;21637;53.352;-6.356;2023-04-15T08:10:51;9.80;99.90
35531;DHT22;21637;53.352;-6.356;2023-04-15T08:13:17;9.80;99.90
35531;DHT22;21637;53.352;-6.356;2023-04-15T08:15:43;9.90;99.90
35531;DHT22;21637;53.352;-6.356;2023-04-15T08:18:09;10.00;99.90
35531;DHT22;21637;53.352;-6.356;2023-04-15T08:20:35;10.10;99.90
35531;DHT22;21637;53.352;-6.356;2023-04-15T08:23:02;10.00;99.90
35531;DHT22;21637;53.352;-6.356;2023-04-15T08:25:27;9.80;99.90
35531;DHT22;21637;53.352;-6.356;2023-04-15T08:27:56;9.80;99.90
35531;DHT22;21637;53.352;-6.356;2023-04-15T08:30:22;9.90;99.90
35531;DHT22;21637;53.352;-6.356;2023-04-15T08:32:50;10.10;99.90
35531;DHT22;21637;53.352;-6.356;2023-04-15T08:35:16;9.90;99.90
35531;DHT22;21637;53.352;-6.356;2023-04-15T08:37:42;10.00;99.90
35531;DHT22;21637;53.352;-6.356;2023-04-15T08:40:08;10.20;99.90
35531;DHT22;21637;53.352;-6.356;2023-04-15T08:42:41;10.30;99.90
35531;DHT22;21637;53.352;-6.356;2023-04-15T08:45:08;10.30;99.90
35531;DHT22;21637;53.352;-6.356;2023-04-15T08:47:38;10.10;99.90
35531;DHT22;21637;53.352;-6.356;2023-04-15T08:50:06;10.10;99.90
35531;DHT22;21637;53.352;-6.356;2023-04-15T08:52:33;10.20;99.90
35531;DHT22;21637;53.352;-6.356;2023-04-15T08:55:01;10.40;99.90
35531;DHT22;21637;53.352;-6.356;2023-04-15T08:57:28;10.70;99.90
35531;DHT22;21637;53.352;-6.356;2023-04-15T08:59:57;10.80;99.90
35531;DHT22;21637;53.352;-6.356;2023-04-15T09:02:24;10.90;99.90
35531;DHT22;21637;53.352;-6.356;2023-04-15T09:04:52;11.00;99.90
35531;DHT22;21637;53.352;-6.356;2023-04-15T09:07:17;11.10;99.90
35531;DHT22;21637;53.352;-6.356;2023-04-15T09:09:43;11.00;99.90
35531;DHT22;21637;53.352;-6.356;2023-04-15T09:12:10;11.00;99.90
35531;DHT22;21637;53.352;-6.356;2023-04-15T09:14:42;10.80;99.90
35531;DHT22;21637;53.352;-6.356;2023-04-15T09:17:09;10.80;99.90
35531;DHT22;21637;53.352;-6.356;2023-04-15T09:19:36;10.70;99.90
35531;DHT22;21637;53.352;-6.356;2023-04-15T09:22:02;10.80;99.90
35531;DHT22;21637;53.352;-6.356;2023-04-15T09:24:38;10.70;99.90
35531;DHT22;21637;53.352;-6.356;2023-04-15T09:27:06;10.90;99.90
35531;DHT22;21637;53.352;-6.356;2023-04-15T09:29:32;11.10;99.90
35531;DHT22;21637;53.352;-6.356;2023-04-15T09:32:15;11.20;99.90
35531;DHT22;21637;53.352;-6.356;2023-04-15T09:34:41;11.20;99.90
35531;DHT22;21637;53.352;-6.356;2023-04-15T09:37:07;11.30;99.90
35531;DHT22;21637;53.352;-6.356;2023-04-15T09:39:49;11.30;99.90
35531;DHT22;21637;53.352;-6.356;2023-04-15T09:42:15;11.40;99.90
35531;DHT22;21637;53.352;-6.356;2023-04-15T09:44:42;11.50;99.90
35531;DHT22;21637;53.352;-6.356;2023-04-15T09:47:08;11.70;99.90
35531;DHT22;21637;53.352;-6.356;2023-04-15T09:49:34;11.80;99.90
35531;DHT22;21637;53.352;-6.356;2023-04-15T09:52:00;12.00;99.90
35531;DHT22;21637;53.352;-6.356;2023-04-15T09:54:37;12.10;99.90
35531;DHT22;21637;53.352;-6.356;2023-04-15T09:57:07;12.20;99.90
35531;DHT22;21637;53.352;-6.356;2023-04-15T09:59:33;12.30;99.90
35531;DHT22;21637;53.352;-6.356;2023-04-15T10:01:59;12.20;99.90
35531;DHT22;21637;53.352;-6.356;2023-04-15T10:04:27;12.20;99.90
35531;DHT22;21637;53.352;-6.356;2023-04-15T10:06:54;12.20;99.90
35531;DHT22;21637;53.352;-6.356;2023-04-15T10:09:20;12.10;99.90
35531;DHT22;21637;53.352;-6.356;2023-04-15T10:11:47;12.10;99.90
35531;DHT22;21637;53.352;-6.356;2023-04-15T10:14:14;12.20;99.90
35531;DHT22;21637;53.352;-6.356;2023-04-15T10:16:40;12.20;99.90
35531;DHT22;21637;53.352;-6.356;2023-04-15T10:19:08;12.20;99.90
35531;DHT22;21637;53.352;-6.356;2023-04-15T10:21:36;12.20;99.90
35531;DHT22;21637;53.352;-6.356;2023-04-15T10:24:02;12.20;99.90
35531;DHT22;21637;53.352;-6.356;2023-04-15T10:26:29;12.20;99.90
35531;DHT22;21637;53.352;-6.356;2023-04-15T10:28:55;12.20;99.90
35531;DHT22;21637;53.352;-6.356;2023-04-15T10:31:22;12.20;99.90
35531;DHT22;21637;53.352;-6.356;2023-04-15T10:33:48;12.30;99.90
35531;DHT22;21637;53.352;-6.356;2023-04-15T10:36:15;12.30;99.90
35531;DHT22;21637;53.352;-6.356;2023-04-15T10:38:44;12.30;99.90
35531;DHT22;21637;53.352;-6.356;2023-04-15T10:41:20;12.40;99.90
35531;DHT22;21637;53.352;-6.356;2023-04-15T10:43:55;12.30;99.90
35531;DHT22;21637;53.352;-6.356;2023-04-15T10:46:36;12.40;99.90
35531;DHT22;21637;53.352;-6.356;2023-04-15T10:49:13;12.50;99.90
35531;DHT22;21637;53.352;-6.356;2023-04-15T10:51:48;12.50;99.90
35531;DHT22;21637;53.352;-6.356;2023-04-15T10:59:38;12.80;99.90
35531;DHT22;21637;53.352;-6.356;2023-04-15T11:05:18;13.00;99.90
35531;DHT22;21637;53.352;-6.356;2023-04-15T11:07:47;13.10;99.90
35531;DHT22;21637;53.352;-6.356;2023-04-15T11:12:46;13.00;99.90
35531;DHT22;21637;53.352;-6.356;2023-04-15T11:15:40;12.90;99.90
35531;DHT22;21637;53.352;-6.356;2023-04-15T11:18:20;12.90;99.90
35531;DHT22;21637;53.352;-6.356;2023-04-15T11:20:50;13.00;99.90
35531;DHT22;21637;53.352;-6.356;2023-04-15T11:23:18;13.10;99.90
35531;DHT22;21637;53.352;-6.356;2023-04-15T11:25:44;13.00;99.90
35531;DHT22;21637;53.352;-6.356;2023-04-15T11:28:11;13.00;99.90
35531;DHT22;21637;53.352;-6.356;2023-04-15T11:30:38;12.80;99.90
35531;DHT22;21637;53.352;-6.356;2023-04-15T11:33:06;12.70;99.90
35531;DHT22;21637;53.352;-6.356;2023-04-15T11:35:33;12.70;99.90
35531;DHT22;21637;53.352;-6.356;2023-04-15T11:38:03;12.80;99.90
35531;DHT22;21637;53.352;-6.356;2023-04-15T11:40:30;12.80;99.90
35531;DHT22;21637;53.352;-6.356;2023-04-15T11:43:19;12.90;99.90
35531;DHT22;21637;53.352;-6.356;2023-04-15T11:45:49;13.00;99.90
35531;DHT22;21637;53.352;-6.356;2023-04-15T11:48:16;12.80;99.90
35531;DHT22;21637;53.352;-6.356;2023-04-15T11:50:42;12.90;99.90
35531;DHT22;21637;53.352;-6.356;2023-04-15T11:53:12;13.10;99.90
35531;DHT22;21637;53.352;-6.356;2023-04-15T11:55:46;13.10;99.90
35531;DHT22;21637;53.352;-6.356;2023-04-15T12:00:52;12.90;99.90
35531;DHT22;21637;53.352;-6.356;2023-04-15T12:03:32;12.80;99.90
35531;DHT22;21637;53.352;-6.356;2023-04-15T12:06:16;13.00;99.90
35531;DHT22;21637;53.352;-6.356;2023-04-15T12:09:17;13.00;99.90
35531;DHT22;21637;53.352;-6.356;2023-04-15T12:11:46;13.00;99.90
35531;DHT22;21637;53.352;-6.356;2023-04-15T12:14:25;13.00;99.90
35531;DHT22;21637;53.352;-6.356;2023-04-15T12:17:02;13.00;99.90
35531;DHT22;21637;53.352;-6.356;2023-04-15T12:19:37;13.20;99.90
35531;DHT22;21637;53.352;-6.356;2023-04-15T12:22:14;13.30;99.90
35531;DHT22;21637;53.352;-6.356;2023-04-15T12:24:41;13.30;99.90
35531;DHT22;21637;53.352;-6.356;2023-04-15T12:27:11;13.20;99.90
35531;DHT22;21637;53.352;-6.356;2023-04-15T12:29:38;13.00;99.90
35531;DHT22;21637;53.352;-6.356;2023-04-15T12:32:06;13.00;99.90
35531;DHT22;21637;53.352;-6.356;2023-04-15T12:34:37;13.00;99.90
35531;DHT22;21637;53.352;-6.356;2023-04-15T12:37:05;13.10;99.90
35531;DHT22;21637;53.352;-6.356;2023-04-15T12:39:34;12.90;99.90
35531;DHT22;21637;53.352;-6.356;2023-04-15T12:42:02;12.80;99.90
35531;DHT22;21637;53.352;-6.356;2023-04-15T12:44:28;12.90;99.90
35531;DHT22;21637;53.352;-6.356;2023-04-15T12:46:54;13.10;99.90
35531;DHT22;21637;53.352;-6.356;2023-04-15T12:49:20;12.90;99.90
35531;DHT22;21637;53.352;-6.356;2023-04-15T12:51:51;12.90;99.90
35531;DHT22;21637;53.352;-6.356;2023-04-15T12:54:18;12.80;99.90
35531;DHT22;21637;53.352;-6.356;2023-04-15T12:56:45;12.80;99.90
35531;DHT22;21637;53.352;-6.356;2023-04-15T12:59:11;12.70;99.90
35531;DHT22;21637;53.352;-6.356;2023-04-15T13:01:38;12.70;99.90
35531;DHT22;21637;53.352;-6.356;2023-04-15T13:04:04;12.60;99.90
35531;DHT22;21637;53.352;-6.356;2023-04-15T13:06:30;12.60;99.90
35531;DHT22;21637;53.352;-6.356;2023-04-15T13:09:01;12.50;99.90
35531;DHT22;21637;53.352;-6.356;2023-04-15T13:11:29;12.70;99.90
35531;DHT22;21637;53.352;-6.356;2023-04-15T13:14:00;12.80;99.90
35531;DHT22;21637;53.352;-6.356;2023-04-15T13:16:26;12.60;99.90
35531;DHT22;21637;53.352;-6.356;2023-04-15T13:18:52;12.70;99.90
35531;DHT22;21637;53.352;-6.356;2023-04-15T13:21:18;12.70;99.90
35531;DHT22;21637;53.352;-6.356;2023-04-15T13:23:44;12.80;99.90
35531;DHT22;21637;53.352;-6.356;2023-04-15T13:26:10;13.00;99.90
35531;DHT22;21637;53.352;-6.356;2023-04-15T13:28:35;13.00;99.90
35531;DHT22;21637;53.352;-6.356;2023-04-15T13:31:01;13.00;99.90
35531;DHT22;21637;53.352;-6.356;2023-04-15T13:33:27;13.10;99.90
35531;DHT22;21637;53.352;-6.356;2023-04-15T13:35:53;13.00;99.90
35531;DHT22;21637;53.352;-6.356;2023-04-15T13:38:19;13.00;99.90
35531;DHT22;21637;53.352;-6.356;2023-04-15T13:40:45;13.20;99.90
35531;DHT22;21637;53.352;-6.356;2023-04-15T13:43:11;13.40;99.90
35531;DHT22;21637;53.352;-6.356;2023-04-15T13:45:37;13.50;99.90
35531;DHT22;21637;53.352;-6.356;2023-04-15T13:48:03;13.60;99.90
35531;DHT22;21637;53.352;-6.356;2023-04-15T13:50:29;13.60;99.90
35531;DHT22;21637;53.352;-6.356;2023-04-15T13:52:55;13.60;99.90
35531;DHT22;21637;53.352;-6.356;2023-04-15T13:55:20;13.60;99.90
35531;DHT22;21637;53.352;-6.356;2023-04-15T13:57:46;13.70;99.90
35531;DHT22;21637;53.352;-6.356;2023-04-15T14:00:12;13.70;99.90
35531;DHT22;21637;53.352;-6.356;2023-04-15T14:02:39;13.80;99.90
35531;DHT22;21637;53.352;-6.356;2023-04-15T14:05:05;13.90;99.90
35531;DHT22;21637;53.352;-6.356;2023-04-15T14:07:30;14.00;99.90
35531;DHT22;21637;53.352;-6.356;2023-04-15T14:09:56;14.10;99.90
35531;DHT22;21637;53.352;-6.356;2023-04-15T14:12:22;14.20;99.90
35531;DHT22;21637;53.352;-6.356;2023-04-15T14:14:48;14.30;99.90
35531;DHT22;21637;53.352;-6.356;2023-04-15T14:17:13;14.30;99.90
35531;DHT22;21637;53.352;-6.356;2023-04-15T14:19:39;14.50;99.90
35531;DHT22;21637;53.352;-6.356;2023-04-15T14:22:05;14.40;99.90
35531;DHT22;21637;53.352;-6.356;2023-04-15T14:24:31;14.40;99.90
35531;DHT22;21637;53.352;-6.356;2023-04-15T14:26:57;14.40;99.90
35531;DHT22;21637;53.352;-6.356;2023-04-15T14:29:23;14.40;99.90
35531;DHT22;21637;53.352;-6.356;2023-04-15T14:31:49;14.60;99.90
35531;DHT22;21637;53.352;-6.356;2023-04-15T14:34:16;14.70;99.90
35531;DHT22;21637;53.352;-6.356;2023-04-15T14:36:42;14.70;99.90
35531;DHT22;21637;53.352;-6.356;2023-04-15T14:39:09;14.80;99.90
35531;DHT22;21637;53.352;-6.356;2023-04-15T14:41:35;14.80;99.90
35531;DHT22;21637;53.352;-6.356;2023-04-15T14:44:01;14.80;99.90
35531;DHT22;21637;53.352;-6.356;2023-04-15T14:46:27;14.80;99.90
35531;DHT22;21637;53.352;-6.356;2023-04-15T14:48:52;14.90;99.90
35531;DHT22;21637;53.352;-6.356;2023-04-15T14:51:18;15.00;99.90
35531;DHT22;21637;53.352;-6.356;2023-04-15T14:53:45;14.90;99.90
35531;DHT22;21637;53.352;-6.356;2023-04-15T14:56:10;14.90;99.90
35531;DHT22;21637;53.352;-6.356;2023-04-15T14:58:36;14.90;99.90
35531;DHT22;21637;53.352;-6.356;2023-04-15T15:01:03;14.80;99.90
35531;DHT22;21637;53.352;-6.356;2023-04-15T15:03:29;14.90;99.90
35531;DHT22;21637;53.352;-6.356;2023-04-15T15:05:54;14.90;99.90
35531;DHT22;21637;53.352;-6.356;2023-04-15T15:08:22;14.90;99.90
35531;DHT22;21637;53.352;-6.356;2023-04-15T15:10:47;14.90;99.90
35531;DHT22;21637;53.352;-6.356;2023-04-15T15:13:13;14.90;99.90
35531;DHT22;21637;53.352;-6.356;2023-04-15T15:15:39;14.80;99.90
35531;DHT22;21637;53.352;-6.356;2023-04-15T15:18:05;14.80;99.90
35531;DHT22;21637;53.352;-6.356;2023-04-15T15:20:31;14.80;99.90
35531;DHT22;21637;53.352;-6.356;2023-04-15T15:22:57;14.80;99.90
35531;DHT22;21637;53.352;-6.356;2023-04-15T15:25:23;14.70;99.90
35531;DHT22;21637;53.352;-6.356;2023-04-15T15:27:49;14.70;99.90
35531;DHT22;21637;53.352;-6.356;2023-04-15T15:30:15;14.60;99.90
35531;DHT22;21637;53.352;-6.356;2023-04-15T15:32:41;14.60;99.90
35531;DHT22;21637;53.352;-6.356;2023-04-15T15:35:08;14.60;99.90
35531;DHT22;21637;53.352;-6.356;2023-04-15T15:37:35;14.50;99.90